Elton, Pennsylvania
Current Conditions -  °F | °C
As of 11:54 PM on Wednesday 22 Oct 2014 (Local Time) from KJST Reporting Station
Overcast Overcast  
Wind Chill: 34°   Ceiling: 800
Heat Index: 42°   Visibility: 10mi
Dew Point: 38°   Wind: 16mph
Humidity: 85%   Direction: 330°NNW
Pressure: 30.07"   Gusts: NA
Location:  40.28°N, 78.8°W
Report Text: KJST 230354Z AUTO 33014KT 10SM OVC008 06/03 A3007 RMK AO2 SLP195 T00560033
Loading
Personal Weather Stations






























Interactive Weather Map New forecast layout! Learn more

10-Day Weather Forecast

Advertisements
Track Severe Weather on mobile